Terminal Aerodrome Forecast
Issued by NWS

Home | Current Version | Previous Version | Text Only | Print | Product List | Glossary On
Versions: 1 2 3 4 5 6 7 8 9 10 11 12 13 14 15 16 17 18 19 20 21 22
000
FTUS41 KBGM 180900 AAA
TAFRME
TAF AMD
KRME 180912Z 1809/1906 28010G16KT 5SM -SN OVC012
      TEMPO 1809/1811 2SM -SHSN
     FM181500 29012G18KT P6SM -SHSN OVC020=

USA.gov is the U.S. government's official web portal to all federal, state and local government web resources and services.